BAW437 LEBL-EGLL
Flight info
| Callsign | BAW437 |
|---|---|
| Flight time | N/A |
| Altitude | 34000 |
| Route | NATPI DCT EVNAM DCT AGN DCT SECHE DCT UVELI DCT CNA DCT MANAK UY110 REVTU UP87 ROXOG |
| Aircraft | A20N/M-SDE2E3FGHIRWXY/LB1 |
Departure
| Time | 2026-05-04 17:16 |
|---|---|
| Airport | Josep Tarradellas Barcelona-El Prat Airport (LEBL) |
Arrival
| Time | N/A |
|---|---|
| Airport | London Heathrow Airport (EGLL) |
| Time | Latitude | Longitude | Altitude | Speed | Heading |
|---|---|---|---|---|---|
| 2026-05-04 15:36 | 41.29072 | 2.08161 | 18 ft | 0 kts | 336° |
| 2026-05-04 17:00 | 41.29028 | 2.08188 | 18 ft | 4 kts | 324° |
| 2026-05-04 17:00 | 41.29009 | 2.08242 | 20 ft | 0 kts | 245° |
| 2026-05-04 17:05 | 41.29009 | 2.08240 | 20 ft | 2 kts | 245° |
| 2026-05-04 17:06 | 41.28953 | 2.08132 | 18 ft | 6 kts | 185° |
| 2026-05-04 17:06 | 41.28926 | 2.08137 | 19 ft | 6 kts | 161° |
| 2026-05-04 17:07 | 41.28851 | 2.08181 | 18 ft | 9 kts | 156° |
| 2026-05-04 17:07 | 41.28816 | 2.08202 | 18 ft | 0 kts | 155° |
| 2026-05-04 17:07 | 41.28807 | 2.08208 | 18 ft | 4 kts | 154° |
| 2026-05-04 17:07 | 41.28768 | 2.08230 | 19 ft | 9 kts | 160° |
| 2026-05-04 17:08 | 41.28716 | 2.08256 | 18 ft | 8 kts | 119° |
| 2026-05-04 17:08 | 41.28713 | 2.08280 | 18 ft | 0 kts | 92° |
| 2026-05-04 17:09 | 41.28715 | 2.08299 | 18 ft | 7 kts | 74° |
| 2026-05-04 17:09 | 41.28743 | 2.08381 | 18 ft | 13 kts | 65° |
| 2026-05-04 17:09 | 41.28780 | 2.08487 | 19 ft | 14 kts | 65° |
| 2026-05-04 17:10 | 41.28853 | 2.08702 | 18 ft | 14 kts | 65° |
| 2026-05-04 17:10 | 41.28964 | 2.09021 | 19 ft | 16 kts | 64° |
| 2026-05-04 17:11 | 41.29004 | 2.09143 | 17 ft | 16 kts | 66° |
| 2026-05-04 17:11 | 41.29047 | 2.09275 | 18 ft | 15 kts | 65° |
| 2026-05-04 17:11 | 41.29127 | 2.09507 | 18 ft | 16 kts | 67° |
| 2026-05-04 17:12 | 41.29182 | 2.09668 | 18 ft | 22 kts | 65° |
| 2026-05-04 17:12 | 41.29270 | 2.10014 | 17 ft | 20 kts | 96° |
| 2026-05-04 17:13 | 41.29184 | 2.10216 | 13 ft | 6 kts | 242° |
| 2026-05-04 17:14 | 41.29182 | 2.10209 | 13 ft | 0 kts | 244° |
| 2026-05-04 17:14 | 41.29134 | 2.10069 | 14 ft | 53 kts | 245° |
| 2026-05-04 17:15 | 41.28946 | 2.09522 | 15 ft | 111 kts | 245° |
| 2026-05-04 17:15 | 41.28115 | 2.07084 | 557 ft | 171 kts | 246° |
| 2026-05-04 17:16 | 41.26237 | 2.05789 | 1907 ft | 172 kts | 179° |
| 2026-05-04 17:16 | 41.22474 | 2.05136 | 3381 ft | 209 kts | 195° |
| 2026-05-04 17:17 | 41.21141 | 2.04686 | 4016 ft | 214 kts | 195° |
| 2026-05-04 17:17 | 41.17785 | 2.02156 | 6136 ft | 215 kts | 233° |
| 2026-05-04 17:18 | 41.16981 | 2.00736 | 6635 ft | 224 kts | 232° |
| 2026-05-04 17:18 | 41.15536 | 1.98240 | 7742 ft | 226 kts | 232° |
| 2026-05-04 17:19 | 41.13814 | 1.95213 | 9107 ft | 229 kts | 238° |
| 2026-05-04 17:19 | 41.12769 | 1.91914 | 10302 ft | 235 kts | 251° |
| 2026-05-04 17:20 | 41.11900 | 1.88051 | 11409 ft | 247 kts | 251° |
| 2026-05-04 17:20 | 41.11635 | 1.83883 | 12712 ft | 260 kts | 278° |
| 2026-05-04 17:20 | 41.12197 | 1.81741 | 13302 ft | 272 kts | 287° |
| 2026-05-04 17:21 | 41.13664 | 1.77382 | 13683 ft | 315 kts | 298° |
| 2026-05-04 17:21 | 41.16977 | 1.73579 | 14103 ft | 363 kts | 327° |
| 2026-05-04 17:22 | 41.18822 | 1.72242 | 14591 ft | 366 kts | 326° |
| 2026-05-04 17:22 | 41.20833 | 1.70772 | 15197 ft | 369 kts | 327° |
| 2026-05-04 17:23 | 41.26902 | 1.67084 | 16859 ft | 379 kts | 330° |
| 2026-05-04 17:23 | 41.29051 | 1.65784 | 17502 ft | 382 kts | 331° |
| 2026-05-04 17:23 | 41.33480 | 1.63110 | 18572 ft | 389 kts | 330° |
| 2026-05-04 17:24 | 41.35479 | 1.61892 | 18945 ft | 394 kts | 330° |